Time;durP1;ratioP1;P1;durP2;ratioP2;P2;SDS_P1;SDS_P2;PMS_P1;PMS_P2;Temp;Humidity;BMP_temperature;BMP_pressure;BME280_temperature;BME280_humidity;BME280_pressure;Samples;Min_cycle;Max_cycle;Signal;HPM_P1;HPM_P2
2022/08/10 00:00:19;;;;;;;0.90;0.50;;;23.20;99.90;;;;;;1043015;28;20417;-66
2022/08/10 00:00:21;;;;;;;0.73;0.50;;;23.20;99.90;;;;;;1042246;28;20063;-66
2022/08/10 00:00:52;;;;;;;0.80;0.50;;;23.10;99.90;;;;;;1038771;28;20029;-66
2022/08/10 00:01:23;;;;;;;0.60;0.60;;;23.10;99.90;;;;;;1039126;28;20393;-66
2022/08/10 00:01:53;;;;;;;2.37;0.60;;;23.10;99.90;;;;;;1038905;28;20484;-66
2022/08/10 00:02:24;;;;;;;0.50;0.50;;;23.10;99.90;;;;;;1038409;28;20469;-66
2022/08/10 00:02:59;;;;;;;0.87;0.60;;;23.10;99.90;;;;;;1038701;28;20021;-66
2022/08/10 00:03:29;;;;;;;0.50;0.50;;;23.10;99.90;;;;;;1038790;28;20072;-66
2022/08/10 00:04:01;;;;;;;1.87;0.60;;;23.10;99.90;;;;;;1039125;28;20029;-66
2022/08/10 00:04:31;;;;;;;0.60;0.50;;;23.10;99.90;;;;;;1038893;28;20029;-65
2022/08/10 00:05:02;;;;;;;0.73;0.57;;;23.10;99.90;;;;;;1039211;28;20025;-66
2022/08/10 00:05:33;;;;;;;0.57;0.57;;;23.10;99.90;;;;;;1039167;28;20017;-66
2022/08/10 00:06:04;;;;;;;0.50;0.50;;;23.10;99.90;;;;;;1039386;28;20024;-66
2022/08/10 00:06:35;;;;;;;0.83;0.60;;;23.10;99.90;;;;;;1039198;28;20018;-66
2022/08/10 00:07:05;;;;;;;0.47;0.47;;;23.10;99.90;;;;;;1039417;28;20498;-65
2022/08/10 00:07:36;;;;;;;0.80;0.57;;;23.10;99.90;;;;;;1039168;28;20025;-66
2022/08/10 00:08:06;;;;;;;0.53;0.53;;;23.10;99.90;;;;;;1038796;28;20021;-65
2022/08/10 00:08:37;;;;;;;0.63;0.63;;;23.10;99.90;;;;;;1038856;28;20048;-66
2022/08/10 00:09:07;;;;;;;0.70;0.60;;;23.10;99.90;;;;;;1039168;28;20033;-66
2022/08/10 00:09:38;;;;;;;0.50;0.50;;;23.10;99.90;;;;;;1038765;28;20483;-66
2022/08/10 00:10:11;;;;;;;1.90;0.63;;;23.10;99.90;;;;;;1039149;28;20022;-65
2022/08/10 00:10:41;;;;;;;0.85;0.50;;;23.10;99.90;;;;;;1042224;28;20028;-66
2022/08/10 00:11:12;;;;;;;0.90;0.70;;;23.10;99.90;;;;;;1043207;28;20145;-66
2022/08/10 00:11:43;;;;;;;2.10;0.60;;;23.10;99.90;;;;;;1043401;28;20053;-66
2022/08/10 00:12:14;;;;;;;0.80;0.70;;;23.10;99.90;;;;;;1043152;28;20259;-66
2022/08/10 00:12:44;;;;;;;0.70;0.70;;;23.10;99.90;;;;;;1043406;28;20439;-66
2022/08/10 00:13:15;;;;;;;1.17;0.60;;;23.10;99.90;;;;;;1043227;28;20021;-66
2022/08/10 00:13:46;;;;;;;2.83;0.60;;;23.10;99.90;;;;;;1043351;28;20017;-66
2022/08/10 00:14:16;;;;;;;0.60;0.60;;;23.10;99.90;;;;;;1043091;28;20017;-66
2022/08/10 00:14:47;;;;;;;0.73;0.73;;;23.10;99.90;;;;;;1043414;28;20037;-66
2022/08/10 00:15:20;;;;;;;0.67;0.50;;;23.10;99.90;;;;;;1043333;28;20033;-66
2022/08/10 00:15:51;;;;;;;0.93;0.52;;;23.00;99.90;;;;;;1043346;28;20028;-66
2022/08/10 00:16:22;;;;;;;0.95;0.50;;;23.10;99.90;;;;;;1043302;28;20029;-65
2022/08/10 00:16:52;;;;;;;0.60;0.57;;;23.10;99.90;;;;;;1043535;28;20136;-66
2022/08/10 00:17:23;;;;;;;1.43;0.60;;;23.10;99.90;;;;;;1043202;28;20106;-66
2022/08/10 00:17:53;;;;;;;2.40;0.43;;;23.00;99.90;;;;;;1043304;28;20029;-65
2022/08/10 00:18:25;;;;;;;0.80;0.70;;;23.00;99.90;;;;;;1043217;28;20025;-65
2022/08/10 00:18:55;;;;;;;1.10;0.43;;;23.00;99.90;;;;;;1043353;28;20025;-65
2022/08/10 00:19:26;;;;;;;1.67;0.87;;;23.00;99.90;;;;;;1040442;28;20033;-65
2022/08/10 00:19:56;;;;;;;1.20;0.60;;;23.00;99.90;;;;;;1039212;28;20124;-67
2022/08/10 00:20:27;;;;;;;1.23;0.80;;;23.00;99.90;;;;;;1039115;28;20033;-65
2022/08/10 00:20:58;;;;;;;0.60;0.60;;;23.00;99.90;;;;;;1039194;28;20087;-65
2022/08/10 00:21:28;;;;;;;1.57;0.47;;;23.00;99.90;;;;;;1039186;28;20052;-65
2022/08/10 00:21:59;;;;;;;0.50;0.50;;;23.00;99.90;;;;;;1039465;28;20461;-66
2022/08/10 00:22:29;;;;;;;0.67;0.63;;;23.00;99.90;;;;;;1039016;28;20587;-65
2022/08/10 00:23:00;;;;;;;0.87;0.60;;;23.00;99.90;;;;;;1039309;28;20051;-66
2022/08/10 00:23:31;;;;;;;2.43;0.60;;;23.00;99.90;;;;;;1039061;28;20105;-66
2022/08/10 00:24:01;;;;;;;0.60;0.33;;;23.00;99.90;;;;;;1039288;28;20030;-66
2022/08/10 00:24:32;;;;;;;1.73;0.70;;;23.00;99.90;;;;;;1039097;28;20530;-66
2022/08/10 00:25:04;;;;;;;1.80;0.60;;;22.90;99.90;;;;;;1039190;28;20021;-66
2022/08/10 00:25:35;;;;;;;1.13;0.77;;;23.00;99.90;;;;;;1039042;28;20470;-65
2022/08/10 00:26:06;;;;;;;1.27;0.60;;;23.00;99.90;;;;;;1039121;28;20449;-66
2022/08/10 00:26:36;;;;;;;0.80;0.70;;;22.90;99.90;;;;;;1038995;28;20049;-66
2022/08/10 00:27:07;;;;;;;0.87;0.57;;;22.90;99.90;;;;;;1039441;28;20067;-66
2022/08/10 00:27:37;;;;;;;0.53;0.53;;;22.90;99.90;;;;;;1039034;28;20396;-65
2022/08/10 00:28:08;;;;;;;0.63;0.60;;;22.90;99.90;;;;;;1039265;28;20400;-66
2022/08/10 00:28:38;;;;;;;0.70;0.60;;;22.90;99.90;;;;;;1038998;28;20068;-66
2022/08/10 00:29:09;;;;;;;0.70;0.63;;;22.90;99.90;;;;;;1039055;28;20687;-65
2022/08/10 00:29:39;;;;;;;1.27;0.50;;;22.90;99.90;;;;;;1038987;28;20033;-65
2022/08/10 00:30:11;;;;;;;0.87;0.70;;;22.90;99.90;;;;;;1038776;28;20072;-65
2022/08/10 00:30:41;;;;;;;0.80;0.70;;;22.90;99.90;;;;;;1038747;28;20660;-65
2022/08/10 00:31:12;;;;;;;1.50;0.50;;;22.90;99.90;;;;;;1038754;28;20503;-65
2022/08/10 00:31:42;;;;;;;0.73;0.53;;;22.90;99.90;;;;;;1039182;28;20021;-66
2022/08/10 00:32:13;;;;;;;0.60;0.60;;;22.90;99.90;;;;;;1039191;28;20010;-67
2022/08/10 00:32:44;;;;;;;0.60;0.60;;;22.90;99.90;;;;;;1039232;28;20071;-66
2022/08/10 00:33:14;;;;;;;4.43;0.83;;;22.80;99.90;;;;;;1039080;28;20045;-66
2022/08/10 00:33:45;;;;;;;0.50;0.50;;;22.90;99.90;;;;;;1039170;28;20026;-66
2022/08/10 00:34:16;;;;;;;0.50;0.50;;;22.80;99.90;;;;;;1039090;28;20018;-66
2022/08/10 00:34:47;;;;;;;0.82;0.60;;;22.90;99.90;;;;;;1038946;28;20018;-66
2022/08/10 00:35:18;;;;;;;0.60;0.60;;;22.80;99.90;;;;;;1038697;28;20053;-65
2022/08/10 00:35:49;;;;;;;0.50;0.50;;;22.80;99.90;;;;;;1038998;28;20076;-66
2022/08/10 00:36:19;;;;;;;0.85;0.73;;;22.90;99.90;;;;;;1038708;28;20017;-66
2022/08/10 00:36:50;;;;;;;0.70;0.70;;;22.80;99.90;;;;;;1039091;28;20021;-66
2022/08/10 00:37:20;;;;;;;0.43;0.43;;;22.90;99.90;;;;;;1039430;28;20017;-66
2022/08/10 00:37:51;;;;;;;1.43;0.80;;;22.90;99.90;;;;;;1039241;28;20021;-66
2022/08/10 00:38:22;;;;;;;0.60;0.60;;;22.90;99.90;;;;;;1039090;28;20408;-66
2022/08/10 00:38:52;;;;;;;0.97;0.67;;;22.90;99.90;;;;;;1039138;28;20105;-67
2022/08/10 00:39:23;;;;;;;1.93;0.63;;;22.90;99.90;;;;;;1039035;28;20027;-65
2022/08/10 00:39:54;;;;;;;1.17;0.60;;;22.90;99.90;;;;;;1039330;28;20071;-65
2022/08/10 00:40:25;;;;;;;1.23;0.50;;;22.90;99.90;;;;;;1039115;28;20104;-65
2022/08/10 00:40:55;;;;;;;0.83;0.63;;;22.80;99.90;;;;;;1038760;28;20029;-65
2022/08/10 00:41:26;;;;;;;0.50;0.50;;;22.90;99.90;;;;;;1038700;28;20068;-65
2022/08/10 00:41:56;;;;;;;0.83;0.80;;;22.90;99.90;;;;;;1038837;28;20026;-65
2022/08/10 00:42:27;;;;;;;0.80;0.63;;;22.80;99.90;;;;;;1038827;28;20025;-66
2022/08/10 00:42:57;;;;;;;0.60;0.60;;;22.80;99.90;;;;;;1039217;28;20539;-65
2022/08/10 00:43:28;;;;;;;0.73;0.70;;;22.80;99.90;;;;;;1039127;28;20021;-65
2022/08/10 00:43:59;;;;;;;0.73;0.60;;;22.80;99.90;;;;;;1039223;28;20025;-66
2022/08/10 00:44:30;;;;;;;0.73;0.52;;;22.80;99.90;;;;;;1038400;28;20107;-65
2022/08/10 00:45:01;;;;;;;0.65;0.65;;;22.80;99.90;;;;;;1038822;28;20025;-65
2022/08/10 00:45:33;;;;;;;1.17;0.50;;;22.80;99.90;;;;;;1038753;28;20059;-65
2022/08/10 00:46:04;;;;;;;0.75;0.65;;;22.80;99.90;;;;;;1038970;28;20573;-65
2022/08/10 00:46:34;;;;;;;0.90;0.60;;;22.80;99.90;;;;;;1038713;28;20715;-65
2022/08/10 00:47:06;;;;;;;1.07;0.67;;;22.80;99.90;;;;;;1039048;28;20025;-64
2022/08/10 00:47:37;;;;;;;0.73;0.70;;;22.80;99.90;;;;;;1039206;28;20132;-65
2022/08/10 00:48:07;;;;;;;0.60;0.60;;;22.80;99.90;;;;;;1039328;28;20151;-65
2022/08/10 00:48:38;;;;;;;1.03;0.83;;;22.80;99.90;;;;;;1038958;28;20014;-65
2022/08/10 00:49:08;;;;;;;0.63;0.60;;;22.80;99.90;;;;;;1038945;28;20024;-65
2022/08/10 00:49:40;;;;;;;0.50;0.50;;;22.80;99.90;;;;;;1042243;28;20009;-65
2022/08/10 00:50:10;;;;;;;2.20;0.60;;;22.80;99.90;;;;;;1043502;28;20426;-65
2022/08/10 00:50:41;;;;;;;1.17;0.70;;;22.80;99.90;;;;;;1043263;28;20497;-65
2022/08/10 00:51:12;;;;;;;1.03;0.63;;;22.80;99.90;;;;;;1043238;28;20024;-65
2022/08/10 00:51:42;;;;;;;0.50;0.50;;;22.80;99.90;;;;;;1043035;28;20473;-65
2022/08/10 00:52:15;;;;;;;1.30;0.80;;;22.80;99.90;;;;;;1043315;28;20071;-66
2022/08/10 00:52:46;;;;;;;1.27;0.75;;;22.80;99.90;;;;;;1043475;28;20048;-65
2022/08/10 00:53:17;;;;;;;0.88;0.57;;;22.80;99.90;;;;;;1043347;28;20100;-65
2022/08/10 00:53:47;;;;;;;0.80;0.70;;;22.80;99.90;;;;;;1042906;28;20021;-65
2022/08/10 00:54:19;;;;;;;1.10;0.83;;;22.80;99.90;;;;;;1043141;28;20021;-65
2022/08/10 00:54:51;;;;;;;5.07;1.05;;;22.70;99.90;;;;;;1042989;28;20025;-65
2022/08/10 00:55:22;;;;;;;0.73;0.68;;;22.70;99.90;;;;;;1038673;28;20030;-65
2022/08/10 00:55:54;;;;;;;1.75;0.60;;;22.70;99.90;;;;;;1038675;28;20060;-66
2022/08/10 00:56:24;;;;;;;0.43;0.43;;;22.70;99.90;;;;;;1038762;28;20033;-66
2022/08/10 00:56:57;;;;;;;0.50;0.50;;;22.70;99.90;;;;;;1039039;28;20469;-66
2022/08/10 00:57:27;;;;;;;0.63;0.60;;;22.70;99.90;;;;;;1043227;28;20028;-66
2022/08/10 00:57:59;;;;;;;1.60;0.73;;;22.70;99.90;;;;;;1043133;28;20033;-65
2022/08/10 00:58:29;;;;;;;0.60;0.60;;;22.70;99.90;;;;;;1042648;28;20755;-65
2022/08/10 00:59:00;;;;;;;0.73;0.60;;;22.60;99.90;;;;;;1043016;28;20644;-65
2022/08/10 00:59:32;;;;;;;0.70;0.70;;;22.70;99.90;;;;;;1042746;28;20621;-65
2022/08/10 01:00:06;;;;;;;1.20;0.80;;;22.70;99.90;;;;;;1042916;28;20788;-65
2022/08/10 01:00:36;;;;;;;0.75;0.75;;;22.70;99.90;;;;;;1038852;28;20025;-65
2022/08/10 01:01:07;;;;;;;1.33;0.80;;;22.70;99.90;;;;;;1038983;28;20009;-66
2022/08/10 01:01:37;;;;;;;0.70;0.60;;;22.70;99.90;;;;;;1038634;28;20051;-66
2022/08/10 01:02:08;;;;;;;2.37;0.77;;;22.60;99.90;;;;;;1039185;28;20568;-66
2022/08/10 01:02:40;;;;;;;0.70;0.70;;;22.60;99.90;;;;;;1039072;28;20610;-66
2022/08/10 01:03:10;;;;;;;2.50;0.80;;;22.60;99.90;;;;;;1039181;28;20029;-66
2022/08/10 01:03:41;;;;;;;2.20;0.70;;;22.60;99.90;;;;;;1039030;28;20060;-66
2022/08/10 01:04:11;;;;;;;0.90;0.70;;;22.60;99.90;;;;;;1039134;28;20032;-65
2022/08/10 01:04:42;;;;;;;1.90;0.90;;;22.60;99.90;;;;;;1039068;28;20037;-66
2022/08/10 01:05:13;;;;;;;0.97;0.80;;;22.60;99.90;;;;;;1039014;28;20617;-66
2022/08/10 01:05:58;;;;;;;2.25;0.75;;;22.60;99.90;;;;;;1038944;28;20025;-65
2022/08/10 01:06:47;;;;;;;3.88;1.13;;;22.60;99.90;;;;;;1039015;28;20468;-66
2022/08/10 01:07:36;;;;;;;0.80;0.50;;;22.60;99.90;;;;;;1039145;28;20059;-66
2022/08/10 01:08:25;;;;;;;0.63;0.63;;;22.60;99.90;;;;;;1039035;28;20045;-66
2022/08/10 01:09:18;;;;;;;2.38;0.60;;;22.60;99.90;;;;;;1039061;28;20108;-65
2022/08/10 01:10:12;;;;;;;0.85;0.60;;;22.60;99.90;;;;;;1038406;28;20052;-65
2022/08/10 01:10:52;;;;;;;1.05;0.60;;;22.50;99.90;;;;;;1041394;28;20091;-66
2022/08/10 01:11:45;;;;;;;1.35;0.85;;;22.50;99.90;;;;;;1042904;28;20027;-65
2022/08/10 01:12:32;;;;;;;1.35;0.95;;;22.50;99.90;;;;;;1038911;28;20017;-64
2022/08/10 01:13:16;;;;;;;1.17;1.00;;;22.50;99.90;;;;;;1039300;28;20465;-65
2022/08/10 01:14:13;;;;;;;1.67;0.82;;;22.50;99.90;;;;;;1038378;28;20264;-64
2022/08/10 01:15:15;;;;;;;0.75;0.60;;;22.50;99.90;;;;;;1038163;28;20072;-65
2022/08/10 01:15:53;;;;;;;1.85;0.65;;;22.50;99.90;;;;;;1038836;28;20264;-66
2022/08/10 01:16:33;;;;;;;;;;;22.60;99.90;;;;;;1039502;28;20079;-66
2022/08/10 01:17:16;;;;;;;0.60;0.60;;;22.50;99.90;;;;;;1039142;28;20029;-66
2022/08/10 01:17:57;;;;;;;0.95;0.60;;;22.50;99.90;;;;;;1038500;28;20416;-65
2022/08/10 01:18:59;;;;;;;1.05;0.60;;;22.50;99.90;;;;;;1038787;28;20400;-65
2022/08/10 01:19:42;;;;;;;0.98;0.80;;;22.50;99.90;;;;;;1035986;28;20026;-65
2022/08/10 01:20:33;;;;;;;1.02;0.80;;;22.50;99.90;;;;;;1038510;28;20036;-65
2022/08/10 01:21:09;;;;;;;0.65;0.65;;;22.50;99.90;;;;;;1038989;28;20025;-66
2022/08/10 01:22:08;;;;;;;0.60;0.50;;;22.50;99.90;;;;;;1038531;28;20472;-65
2022/08/10 01:23:15;;;;;;;0.75;0.70;;;22.50;99.90;;;;;;1038616;28;20024;-65
2022/08/10 01:24:10;;;;;;;1.13;0.80;;;22.50;99.90;;;;;;1039175;28;20013;-64
2022/08/10 01:25:11;;;;;;;0.65;0.52;;;22.50;99.90;;;;;;1038874;28;20029;-65
2022/08/10 01:26:03;;;;;;;0.57;0.57;;;22.50;99.90;;;;;;1039059;28;20057;-64
2022/08/10 01:26:46;;;;;;;1.45;0.60;;;22.50;99.90;;;;;;1039066;28;20021;-65
2022/08/10 01:27:50;;;;;;;1.73;0.95;;;22.50;99.90;;;;;;1039163;28;20017;-65
2022/08/10 01:28:44;;;;;;;1.23;0.77;;;22.50;99.90;;;;;;1039127;28;20095;-65
2022/08/10 01:29:53;;;;;;;0.70;0.70;;;22.50;99.90;;;;;;1039035;28;20025;-65
2022/08/10 01:30:29;;;;;;;0.93;0.90;;;22.40;99.90;;;;;;1038681;28;20030;-65
2022/08/10 01:31:02;;;;;;;0.88;0.70;;;22.40;99.90;;;;;;1038259;28;20041;-65
2022/08/10 01:31:39;;;;;;;0.70;0.70;;;22.40;99.90;;;;;;1038795;28;20026;-65
2022/08/10 01:32:12;;;;;;;2.88;0.85;;;22.40;99.90;;;;;;1038823;28;20021;-65
2022/08/10 01:33:18;;;;;;;2.47;0.70;;;22.40;99.90;;;;;;1038543;28;20025;-65
2022/08/10 01:33:55;;;;;;;0.93;0.80;;;22.40;99.90;;;;;;1033347;28;20030;-66
2022/08/10 01:34:35;;;;;;;1.73;0.70;;;22.40;99.90;;;;;;1038732;28;20014;-65
2022/08/10 01:35:18;;;;;;;1.13;0.90;;;22.40;99.90;;;;;;1038598;28;20629;-65
2022/08/10 01:36:15;;;;;;;0.82;0.80;;;22.40;99.90;;;;;;1038848;28;20049;-65
2022/08/10 01:36:51;;;;;;;0.70;0.70;;;22.40;99.90;;;;;;1035839;28;20576;-65
2022/08/10 01:37:28;;;;;;;0.90;0.90;;;22.40;99.90;;;;;;1039149;28;20028;-65
2022/08/10 01:38:09;;;;;;;0.80;0.80;;;22.40;99.90;;;;;;1039130;28;20013;-66
2022/08/10 01:38:42;;;;;;;1.88;0.70;;;22.40;99.90;;;;;;1038843;28;20027;-65
2022/08/10 01:39:27;;;;;;;2.30;0.70;;;22.40;99.90;;;;;;1039305;28;20020;-64
2022/08/10 01:40:00;;;;;;;1.08;0.80;;;22.30;99.90;;;;;;1038406;28;20057;-65
2022/08/10 01:40:35;;;;;;;0.77;0.77;;;22.30;99.90;;;;;;1038581;28;20057;-64
2022/08/10 01:41:09;;;;;;;0.60;0.60;;;22.30;99.90;;;;;;1038654;28;20561;-65
2022/08/10 01:41:44;;;;;;;1.23;0.90;;;22.30;99.90;;;;;;1038835;28;20100;-65
2022/08/10 01:42:18;;;;;;;0.82;0.80;;;22.30;99.90;;;;;;1039139;28;20022;-66
2022/08/10 01:42:50;;;;;;;0.77;0.77;;;22.30;99.90;;;;;;1038727;28;20108;-65
2022/08/10 01:43:22;;;;;;;1.70;0.90;;;22.30;99.90;;;;;;1039002;28;20028;-65
2022/08/10 01:44:07;;;;;;;0.88;0.88;;;22.30;99.90;;;;;;1038532;28;20025;-66
2022/08/10 01:44:48;;;;;;;1.10;0.90;;;22.30;99.90;;;;;;1038878;28;20071;-65
2022/08/10 01:45:21;;;;;;;0.77;0.77;;;22.30;99.90;;;;;;1038985;28;20125;-65
2022/08/10 01:45:59;;;;;;;0.90;0.90;;;22.30;99.90;;;;;;1041676;28;20048;-65
2022/08/10 01:46:31;;;;;;;1.10;1.00;;;22.30;99.90;;;;;;1043010;28;20075;-66
2022/08/10 01:48:55;;;;;;;0.60;0.57;;;22.30;99.90;;;;;;1042650;28;20175;-65
2022/08/10 01:49:27;;;;;;;0.70;0.70;;;22.30;99.90;;;;;;1043094;28;20044;-65
2022/08/10 01:50:08;;;;;;;1.02;0.95;;;22.30;99.90;;;;;;1042927;28;20013;-65
2022/08/10 01:50:45;;;;;;;0.70;0.70;;;22.30;99.90;;;;;;1042503;28;20017;-65
2022/08/10 01:51:26;;;;;;;0.80;0.80;;;22.30;99.90;;;;;;1042784;28;20821;-65
2022/08/10 01:51:59;;;;;;;0.75;0.70;;;22.30;99.90;;;;;;1042752;28;20029;-65
2022/08/10 01:52:31;;;;;;;0.60;0.60;;;22.30;99.90;;;;;;1042893;28;20537;-65
2022/08/10 01:53:08;;;;;;;0.75;0.60;;;22.30;99.90;;;;;;1043068;28;20045;-65
2022/08/10 01:53:53;;;;;;;0.77;0.77;;;22.30;99.90;;;;;;1042587;28;20468;-65
2022/08/10 01:54:27;;;;;;;2.15;0.90;;;22.30;99.90;;;;;;1043239;28;20104;-66
2022/08/10 01:54:58;;;;;;;1.85;0.88;;;22.30;99.90;;;;;;1043368;28;20036;-66
2022/08/10 01:55:29;;;;;;;1.35;0.98;;;22.30;99.90;;;;;;1042845;28;20051;-65
2022/08/10 01:56:01;;;;;;;0.63;0.60;;;22.30;99.90;;;;;;1042983;28;20021;-65
2022/08/10 01:56:35;;;;;;;0.98;0.88;;;22.30;99.90;;;;;;1042811;28;20021;-66
2022/08/10 01:57:10;;;;;;;0.88;0.88;;;22.30;99.90;;;;;;1043117;28;20036;-65
2022/08/10 01:57:42;;;;;;;0.85;0.80;;;22.30;99.90;;;;;;1043045;28;20021;-66
2022/08/10 01:58:16;;;;;;;0.85;0.73;;;22.30;99.90;;;;;;1042960;28;20060;-66
2022/08/10 01:59:01;;;;;;;1.05;0.80;;;22.30;99.90;;;;;;1042906;28;20013;-66
2022/08/10 01:59:35;;;;;;;1.35;0.90;;;22.20;99.90;;;;;;1042856;28;20013;-66
2022/08/10 02:00:08;;;;;;;2.33;0.68;;;22.20;99.90;;;;;;1043460;28;20551;-65
2022/08/10 02:00:41;;;;;;;2.88;0.80;;;22.20;99.90;;;;;;1038129;28;20508;-65
2022/08/10 02:01:16;;;;;;;0.70;0.70;;;22.20;99.90;;;;;;1034533;28;20570;-66
2022/08/10 02:02:01;;;;;;;0.70;0.70;;;22.20;99.90;;;;;;1034384;28;20018;-65
2022/08/10 02:02:35;;;;;;;2.10;1.13;;;22.20;99.90;;;;;;1037465;28;20022;-65
2022/08/10 02:03:09;;;;;;;0.60;0.60;;;22.20;99.90;;;;;;1038775;28;20013;-66
2022/08/10 02:03:41;;;;;;;1.00;0.80;;;22.20;99.90;;;;;;1038814;28;20052;-65
2022/08/10 02:04:14;;;;;;;2.25;0.95;;;22.20;99.90;;;;;;1038878;28;20017;-65
2022/08/10 02:04:48;;;;;;;2.05;0.68;;;22.20;99.90;;;;;;1038730;28;20100;-66
2022/08/10 02:05:21;;;;;;;1.05;0.93;;;22.20;99.90;;;;;;1039267;28;20479;-65
2022/08/10 02:05:54;;;;;;;1.33;0.80;;;22.20;99.90;;;;;;1038322;28;20096;-65
2022/08/10 02:06:28;;;;;;;0.88;0.80;;;22.20;99.90;;;;;;1038587;28;20515;-65
2022/08/10 02:07:00;;;;;;;1.77;0.93;;;22.20;99.90;;;;;;1038514;28;20033;-66
2022/08/10 02:07:33;;;;;;;0.82;0.70;;;22.20;99.90;;;;;;1038651;28;20017;-65
2022/08/10 02:08:06;;;;;;;0.65;0.57;;;22.20;99.90;;;;;;1040202;28;20365;-66
2022/08/10 02:08:37;;;;;;;1.20;0.80;;;22.20;99.90;;;;;;1042875;28;20017;-65
2022/08/10 02:09:12;;;;;;;1.10;0.90;;;22.20;99.90;;;;;;1042999;28;20057;-66
2022/08/10 02:09:48;;;;;;;1.67;0.70;;;22.20;99.90;;;;;;1042989;28;20677;-66
2022/08/10 02:10:21;;;;;;;1.20;0.90;;;22.20;99.90;;;;;;1043208;28;20027;-66
2022/08/10 02:10:54;;;;;;;1.48;0.88;;;22.10;99.90;;;;;;1038759;28;20017;-66
2022/08/10 02:11:27;;;;;;;1.15;0.80;;;22.20;99.90;;;;;;1038932;28;20432;-65
2022/08/10 02:12:04;;;;;;;1.42;0.85;;;22.10;99.90;;;;;;1041593;28;20028;-66
2022/08/10 02:12:36;;;;;;;0.98;0.70;;;22.10;99.90;;;;;;1042863;28;20106;-66
2022/08/10 02:13:08;;;;;;;1.38;0.80;;;22.10;99.90;;;;;;1043324;28;20511;-66
2022/08/10 02:13:41;;;;;;;0.77;0.77;;;22.10;99.90;;;;;;1042919;28;20047;-65
2022/08/10 02:14:16;;;;;;;0.80;0.80;;;22.10;99.90;;;;;;1042832;28;20013;-66
2022/08/10 02:14:52;;;;;;;3.47;1.00;;;22.10;99.90;;;;;;1042937;28;20029;-66
2022/08/10 02:15:26;;;;;;;0.90;0.77;;;22.10;99.90;;;;;;1043246;28;20040;-66
2022/08/10 02:15:59;;;;;;;1.73;0.70;;;22.10;99.90;;;;;;1042905;28;20142;-66
2022/08/10 02:16:31;;;;;;;0.90;0.90;;;22.10;99.90;;;;;;1043023;28;20017;-66
2022/08/10 02:17:15;;;;;;;1.08;0.90;;;22.10;99.90;;;;;;1042895;28;20044;-65
2022/08/10 02:17:54;;;;;;;0.70;0.70;;;22.10;99.90;;;;;;1042924;28;20029;-65
2022/08/10 02:18:26;;;;;;;1.00;0.80;;;22.10;99.90;;;;;;1043059;28;20033;-65
2022/08/10 02:18:58;;;;;;;1.45;0.90;;;22.10;99.90;;;;;;1042956;28;20025;-68
2022/08/10 02:19:32;;;;;;;1.75;0.90;;;22.10;99.90;;;;;;1042798;28;20021;-64
2022/08/10 02:20:08;;;;;;;0.57;0.57;;;22.10;99.90;;;;;;1043026;28;20032;-65
2022/08/10 02:20:43;;;;;;;3.25;0.93;;;22.00;99.90;;;;;;1043200;28;20039;-65
2022/08/10 02:21:14;;;;;;;0.90;0.70;;;22.00;99.90;;;;;;1043073;28;20586;-65
2022/08/10 02:21:48;;;;;;;1.50;0.73;;;22.00;99.90;;;;;;1042892;28;20566;-64
2022/08/10 02:22:20;;;;;;;1.15;0.80;;;22.00;99.90;;;;;;1043043;28;20027;-64
2022/08/10 02:22:58;;;;;;;4.47;1.00;;;22.00;99.90;;;;;;1042753;28;20025;-65
2022/08/10 02:23:31;;;;;;;2.83;1.30;;;22.00;99.90;;;;;;1043269;28;20040;-65
2022/08/10 02:24:04;;;;;;;1.45;0.70;;;22.00;99.90;;;;;;1042927;28;20028;-65
2022/08/10 02:24:39;;;;;;;0.90;0.88;;;22.00;99.90;;;;;;1042834;28;20035;-64
2022/08/10 02:25:12;;;;;;;0.73;0.73;;;22.00;99.90;;;;;;1042842;28;20025;-65
2022/08/10 02:25:43;;;;;;;1.42;1.33;;;22.00;99.90;;;;;;1043631;28;20013;-65
2022/08/10 02:26:14;;;;;;;1.13;0.90;;;22.00;99.90;;;;;;1043777;28;20013;-65
2022/08/10 02:26:46;;;;;;;2.30;1.10;;;22.00;99.90;;;;;;1043824;28;20013;-65
2022/08/10 02:27:19;;;;;;;1.08;0.98;;;22.00;99.90;;;;;;1043519;28;20024;-65
2022/08/10 02:27:51;;;;;;;0.90;0.90;;;22.00;99.90;;;;;;1043223;28;20021;-65
2022/08/10 02:28:24;;;;;;;1.10;0.90;;;22.00;99.90;;;;;;1043674;28;20009;-65
2022/08/10 02:28:55;;;;;;;1.02;0.88;;;22.00;99.90;;;;;;1043291;28;20860;-65
2022/08/10 02:29:27;;;;;;;2.25;0.98;;;22.00;99.90;;;;;;1043740;28;20009;-65
2022/08/10 02:29:59;;;;;;;1.17;0.90;;;22.00;99.90;;;;;;1043709;28;20021;-66
2022/08/10 02:30:31;;;;;;;1.17;0.80;;;22.00;99.90;;;;;;1043620;28;20433;-64
2022/08/10 02:31:04;;;;;;;0.95;0.88;;;22.00;99.90;;;;;;1039708;28;20029;-65
2022/08/10 02:31:36;;;;;;;0.95;0.90;;;22.00;99.90;;;;;;1039629;28;20079;-65
2022/08/10 02:32:08;;;;;;;1.77;1.00;;;22.00;99.90;;;;;;1039515;28;20021;-65
2022/08/10 02:32:40;;;;;;;2.17;0.73;;;22.00;99.90;;;;;;1039627;28;20017;-65
2022/08/10 02:33:14;;;;;;;0.90;0.90;;;22.00;99.90;;;;;;1039497;28;20032;-65
2022/08/10 02:33:47;;;;;;;0.60;0.60;;;22.00;99.90;;;;;;1039574;28;20017;-65
2022/08/10 02:34:19;;;;;;;0.88;0.88;;;22.00;99.90;;;;;;1039548;28;20009;-64
2022/08/10 02:34:50;;;;;;;2.08;1.08;;;22.00;99.90;;;;;;1039530;28;20089;-65
2022/08/10 02:35:21;;;;;;;0.85;0.73;;;22.00;99.90;;;;;;1039209;28;20052;-66
2022/08/10 02:35:53;;;;;;;0.67;0.60;;;22.00;99.90;;;;;;1039281;28;20086;-66
2022/08/10 02:36:28;;;;;;;0.80;0.70;;;22.00;99.90;;;;;;1039235;28;20350;-65
2022/08/10 02:37:02;;;;;;;1.40;0.80;;;22.00;99.90;;;;;;1035980;28;20056;-65
2022/08/10 02:37:36;;;;;;;2.10;1.02;;;22.00;99.90;;;;;;1039141;28;20100;-65
2022/08/10 02:38:08;;;;;;;0.93;0.85;;;22.00;99.90;;;;;;1039262;28;20024;-65
2022/08/10 02:38:48;;;;;;;1.08;0.80;;;22.00;99.90;;;;;;1039310;28;20029;-65
2022/08/10 02:39:22;;;;;;;0.77;0.70;;;22.00;99.90;;;;;;1039582;28;20397;-65
2022/08/10 02:39:52;;;;;;;0.65;0.65;;;22.00;99.90;;;;;;1039358;28;20445;-65
2022/08/10 02:40:24;;;;;;;0.93;0.83;;;22.00;99.90;;;;;;1039607;28;20583;-65
2022/08/10 02:41:00;;;;;;;1.55;0.82;;;22.00;99.90;;;;;;1039337;28;20024;-65
2022/08/10 02:41:56;;;;;;;1.80;0.90;;;22.00;99.90;;;;;;1039485;28;20021;-64
2022/08/10 02:42:40;;;;;;;0.80;0.80;;;22.00;99.90;;;;;;1035201;28;20421;-65
2022/08/10 02:43:20;;;;;;;0.85;0.68;;;22.00;99.90;;;;;;1035245;28;20455;-66
2022/08/10 02:43:56;;;;;;;2.15;0.85;;;21.90;99.90;;;;;;1035139;28;20097;-65
2022/08/10 02:44:50;;;;;;;1.65;0.90;;;21.90;99.90;;;;;;1039553;28;20021;-66
2022/08/10 02:45:37;;;;;;;1.75;0.85;;;21.90;99.90;;;;;;1039908;28;20530;-65
2022/08/10 02:46:23;;;;;;;0.90;0.85;;;21.90;99.90;;;;;;1039552;28;20396;-66
2022/08/10 02:47:09;;;;;;;1.65;0.98;;;21.90;99.90;;;;;;1039461;28;20025;-65
2022/08/10 02:47:54;;;;;;;0.85;0.75;;;21.90;99.90;;;;;;1039621;28;20480;-65
2022/08/10 02:48:44;;;;;;;1.73;0.90;;;21.90;99.90;;;;;;1039185;28;20024;-65
2022/08/10 02:49:25;;;;;;;1.90;0.90;;;21.90;99.90;;;;;;1039162;28;20481;-65
2022/08/10 02:50:27;;;;;;;1.20;1.10;;;21.90;99.90;;;;;;1039201;28;20097;-66
2022/08/10 02:51:01;;;;;;;1.10;1.00;;;21.90;99.90;;;;;;1039470;28;20021;-65
2022/08/10 02:51:44;;;;;;;0.80;0.80;;;21.90;99.90;;;;;;1038905;28;20026;-66
2022/08/10 02:52:21;;;;;;;0.90;0.90;;;21.80;99.90;;;;;;1039385;28;20017;-66
2022/08/10 02:53:11;;;;;;;1.95;1.00;;;21.80;99.90;;;;;;1039017;28;20087;-66
2022/08/10 02:53:50;;;;;;;2.35;1.42;;;21.80;99.90;;;;;;1039188;28;20017;-65
2022/08/10 02:54:32;;;;;;;0.93;0.90;;;21.80;99.90;;;;;;1039434;28;20060;-64
2022/08/10 02:55:29;;;;;;;1.33;1.00;;;21.80;99.90;;;;;;1039533;28;20025;-66
2022/08/10 02:56:10;;;;;;;1.33;1.17;;;21.80;99.90;;;;;;1035967;28;20084;-65
2022/08/10 02:56:50;;;;;;;1.85;1.20;;;21.80;99.90;;;;;;1039564;28;20021;-65
2022/08/10 02:57:31;;;;;;;1.13;1.00;;;21.80;99.90;;;;;;1039618;28;20368;-66
2022/08/10 02:58:07;;;;;;;1.63;1.23;;;21.80;99.90;;;;;;1039610;28;20079;-65
2022/08/10 02:58:47;;;;;;;1.15;0.90;;;21.80;99.90;;;;;;1038885;28;20018;-65
2022/08/10 02:59:26;;;;;;;0.90;0.90;;;21.80;99.90;;;;;;1034878;28;20540;-66
2022/08/10 03:00:02;;;;;;;2.40;1.17;;;21.80;99.90;;;;;;1034980;28;20018;-66
2022/08/10 03:00:40;;;;;;;1.02;0.93;;;21.80;99.90;;;;;;1041190;28;20016;-65
2022/08/10 03:01:16;;;;;;;1.30;0.90;;;21.80;99.90;;;;;;1040664;28;20018;-65
2022/08/10 03:01:49;;;;;;;1.75;1.17;;;21.80;99.90;;;;;;1039266;28;20402;-65
2022/08/10 03:02:28;;;;;;;1.08;1.00;;;21.80;99.90;;;;;;1039180;28;20093;-66
2022/08/10 03:03:00;;;;;;;1.58;1.10;;;21.80;99.90;;;;;;1039080;28;20116;-65
2022/08/10 03:03:36;;;;;;;1.50;0.98;;;21.70;99.90;;;;;;1039095;28;20026;-65
2022/08/10 03:04:13;;;;;;;2.45;0.93;;;21.80;99.90;;;;;;1039288;28;20372;-65
2022/08/10 03:04:47;;;;;;;1.00;0.90;;;21.70;99.90;;;;;;1039341;28;20101;-66
2022/08/10 03:05:18;;;;;;;0.88;0.88;;;21.70;99.90;;;;;;1039540;28;20028;-66
2022/08/10 03:05:54;;;;;;;4.53;1.03;;;21.70;99.90;;;;;;1039503;28;20016;-66
2022/08/10 03:06:31;;;;;;;0.82;0.60;;;21.70;99.90;;;;;;1039165;28;20501;-65